createdAt,value
2018-07-23T00:00:05.143Z,81.20
2018-07-23T00:02:41.449Z,81.20
2018-07-23T00:05:17.616Z,80.20
2018-07-23T00:07:54.036Z,80.10
2018-07-23T00:10:30.288Z,81.40
2018-07-23T00:13:06.765Z,83.60
2018-07-23T00:15:43.006Z,88.10
2018-07-23T00:18:19.407Z,88.60
2018-07-23T00:20:55.795Z,88.60
2018-07-23T00:23:32.173Z,89.30
2018-07-23T00:26:08.787Z,88.90
2018-07-23T00:28:45.051Z,87.70
2018-07-23T00:31:21.431Z,87.80
2018-07-23T00:33:57.788Z,88.80
2018-07-23T00:36:34.213Z,87.80
2018-07-23T00:39:10.960Z,86.70
2018-07-23T00:41:47.163Z,87.00
2018-07-23T00:44:23.371Z,87.00
2018-07-23T00:46:59.884Z,86.70
2018-07-23T00:49:36.714Z,87.10
2018-07-23T00:52:13.046Z,88.30
2018-07-23T00:54:49.386Z,88.10
2018-07-23T00:57:25.905Z,88.60
2018-07-23T01:00:02.219Z,88.80
2018-07-23T01:02:38.612Z,88.50
2018-07-23T01:07:50.884Z,89.10
2018-07-23T01:10:27.356Z,88.80
2018-07-23T01:13:03.867Z,89.30
2018-07-23T01:15:40.099Z,89.20
2018-07-23T01:18:16.456Z,88.70
2018-07-23T01:20:52.924Z,89.00
2018-07-23T01:23:29.429Z,89.40
2018-07-23T01:26:06.124Z,89.50
2018-07-23T01:28:42.518Z,94.00
2018-07-23T01:31:18.789Z,93.10
2018-07-23T01:33:55.167Z,93.70
2018-07-23T01:36:31.545Z,93.90
2018-07-23T01:39:09.679Z,95.00
2018-07-23T01:41:45.860Z,94.60
2018-07-23T01:44:22.193Z,93.70
2018-07-23T01:46:58.688Z,93.50
2018-07-23T01:49:35.142Z,94.20
2018-07-23T01:52:11.456Z,94.10
2018-07-23T01:54:47.861Z,93.40
2018-07-23T01:57:24.111Z,94.10
2018-07-23T02:00:00.327Z,93.80
2018-07-23T02:02:36.711Z,94.00
2018-07-23T02:05:13.041Z,93.40
2018-07-23T02:07:49.456Z,94.50
2018-07-23T02:10:25.758Z,94.60
2018-07-23T02:13:02.065Z,95.30
2018-07-23T02:15:38.499Z,94.50
2018-07-23T02:18:14.962Z,94.00
2018-07-23T02:20:51.554Z,93.50
2018-07-23T02:23:27.846Z,93.70
2018-07-23T02:26:04.171Z,94.90
2018-07-23T02:28:40.489Z,95.10
2018-07-23T02:31:18.072Z,95.70
2018-07-23T02:33:54.463Z,96.10
2018-07-23T02:36:30.819Z,96.80
2018-07-23T02:39:11.892Z,97.30
2018-07-23T02:41:48.247Z,97.30
2018-07-23T02:44:24.712Z,98.40
2018-07-23T02:47:01.106Z,98.60
2018-07-23T02:49:37.537Z,99.00
2018-07-23T02:52:13.863Z,99.50
2018-07-23T02:54:50.230Z,99.30
2018-07-23T02:57:26.656Z,99.00
2018-07-23T03:00:03.111Z,99.90
2018-07-23T03:02:39.388Z,99.80
2018-07-23T03:05:16.793Z,98.90
2018-07-23T03:07:53.094Z,98.80
2018-07-23T03:10:29.628Z,98.20
2018-07-23T03:13:06.035Z,97.00
2018-07-23T03:15:42.335Z,97.50
2018-07-23T03:18:18.700Z,96.30
2018-07-23T03:20:55.689Z,95.70
2018-07-23T03:23:32.051Z,96.80
2018-07-23T03:26:08.547Z,96.50
2018-07-23T03:28:44.778Z,95.80
2018-07-23T03:31:21.119Z,95.20
2018-07-23T03:33:57.597Z,94.90
2018-07-23T03:36:33.754Z,95.50
2018-07-23T03:39:10.979Z,96.90
2018-07-23T03:41:47.286Z,96.20
2018-07-23T03:44:24.712Z,96.00
2018-07-23T03:47:01.123Z,95.80
2018-07-23T03:49:37.572Z,95.60
2018-07-23T03:52:13.940Z,95.90
2018-07-23T03:54:50.468Z,95.30
2018-07-23T03:57:26.905Z,97.00
2018-07-23T04:00:03.414Z,97.80
2018-07-23T04:02:39.547Z,97.40
2018-07-23T04:05:15.841Z,98.10
2018-07-23T04:07:52.138Z,98.20
2018-07-23T04:10:28.631Z,99.20
2018-07-23T04:13:04.799Z,99.50
2018-07-23T04:15:41.090Z,99.90
2018-07-23T04:18:17.300Z,99.90
2018-07-23T04:20:54.458Z,99.90
2018-07-23T04:23:30.846Z,99.90
2018-07-23T04:26:07.089Z,99.90
2018-07-23T04:28:43.317Z,99.90
2018-07-23T04:31:19.759Z,99.90
2018-07-23T04:33:56.160Z,99.90
2018-07-23T04:36:32.383Z,99.90
2018-07-23T04:39:09.139Z,99.90
2018-07-23T04:41:45.489Z,99.90
2018-07-23T04:44:21.849Z,99.90
2018-07-23T04:46:58.388Z,99.90
2018-07-23T04:49:34.753Z,99.90
2018-07-23T04:52:11.103Z,99.90
2018-07-23T04:54:47.464Z,99.90
2018-07-23T04:57:23.902Z,99.90
2018-07-23T05:00:00.291Z,99.90
2018-07-23T05:02:36.593Z,99.90
2018-07-23T05:05:12.983Z,99.90
2018-07-23T05:07:49.435Z,99.90
2018-07-23T05:10:25.856Z,99.90
2018-07-23T05:13:24.840Z,99.90
2018-07-23T05:16:01.325Z,99.90
2018-07-23T05:18:37.463Z,99.90
2018-07-23T05:21:13.924Z,99.90
2018-07-23T05:23:50.381Z,99.90
2018-07-23T05:26:26.805Z,99.90
2018-07-23T05:29:03.304Z,99.90
2018-07-23T05:31:39.512Z,99.90
2018-07-23T05:34:15.839Z,99.90
2018-07-23T05:36:52.311Z,99.90
2018-07-23T05:39:28.771Z,99.90
2018-07-23T05:42:05.071Z,99.90
2018-07-23T05:44:41.397Z,98.20
2018-07-23T05:47:17.694Z,96.60
2018-07-23T05:49:53.920Z,94.60
2018-07-23T05:52:30.365Z,92.60
2018-07-23T05:55:06.812Z,92.60
2018-07-23T05:57:43.155Z,91.50
2018-07-23T06:00:19.606Z,89.50
2018-07-23T06:02:56.588Z,86.60
2018-07-23T06:05:33.002Z,85.40
2018-07-23T06:08:10.659Z,83.50
2018-07-23T06:10:46.939Z,81.20
2018-07-23T06:13:23.348Z,79.80
2018-07-23T06:15:59.717Z,78.40
2018-07-23T06:18:36.047Z,77.20
2018-07-23T06:21:12.431Z,76.10
2018-07-23T06:23:48.818Z,76.60
2018-07-23T06:26:26.179Z,75.70
2018-07-23T06:29:02.402Z,75.20
2018-07-23T06:31:38.729Z,76.20
2018-07-23T06:34:14.904Z,75.10
2018-07-23T06:36:51.252Z,74.60
2018-07-23T06:39:27.683Z,73.50
2018-07-23T06:42:03.956Z,72.90
2018-07-23T06:44:40.170Z,72.20
2018-07-23T06:47:16.375Z,70.20
2018-07-23T06:49:52.746Z,70.40
2018-07-23T06:52:29.135Z,69.50
2018-07-23T06:55:05.667Z,68.00
2018-07-23T06:57:42.500Z,66.70
2018-07-23T07:00:18.866Z,67.10
2018-07-23T07:02:55.279Z,64.70
2018-07-23T07:05:31.668Z,63.30
2018-07-23T07:08:08.027Z,61.10
2018-07-23T07:10:44.335Z,60.20
2018-07-23T07:13:20.695Z,60.40
2018-07-23T07:15:57.044Z,60.70
2018-07-23T07:18:33.417Z,58.50
2018-07-23T07:21:09.706Z,59.50
2018-07-23T07:23:45.972Z,58.80
2018-07-23T07:26:22.367Z,58.00
2018-07-23T07:28:58.763Z,56.80
2018-07-23T07:31:35.259Z,55.70
2018-07-23T07:34:11.414Z,54.80
2018-07-23T07:36:47.676Z,53.70
2018-07-23T07:39:23.984Z,51.80
2018-07-23T07:42:01.287Z,50.00
2018-07-23T07:44:37.589Z,50.80
2018-07-23T07:47:13.908Z,50.00
2018-07-23T07:49:50.231Z,51.50
2018-07-23T07:52:26.600Z,50.70
2018-07-23T07:55:02.964Z,50.40
2018-07-23T07:57:39.276Z,50.20
2018-07-23T08:00:15.680Z,47.90
2018-07-23T08:02:51.848Z,49.10
2018-07-23T08:05:28.277Z,47.30
2018-07-23T08:08:04.675Z,47.40
2018-07-23T08:10:40.979Z,47.50
2018-07-23T08:13:18.052Z,47.40
2018-07-23T08:15:54.376Z,46.80
2018-07-23T08:18:31.443Z,46.60
2018-07-23T08:21:07.663Z,45.80
2018-07-23T08:23:43.931Z,43.20
2018-07-23T08:26:20.244Z,44.00
2018-07-23T08:28:56.616Z,45.20
2018-07-23T08:31:32.910Z,43.80
2018-07-23T08:34:09.119Z,43.00
2018-07-23T08:36:45.250Z,43.00
2018-07-23T08:39:21.448Z,43.50
2018-07-23T08:41:57.766Z,45.00
2018-07-23T08:44:34.104Z,44.20
2018-07-23T08:47:10.435Z,44.50
2018-07-23T08:49:46.705Z,43.20
2018-07-23T08:52:23.000Z,43.30
2018-07-23T08:54:59.443Z,41.90
2018-07-23T08:57:35.793Z,41.60
2018-07-23T09:00:12.621Z,39.90
2018-07-23T09:02:48.983Z,38.80
2018-07-23T09:05:25.289Z,39.20
2018-07-23T09:08:01.592Z,38.60
2018-07-23T09:10:37.911Z,40.20
2018-07-23T09:13:14.064Z,41.80
2018-07-23T09:15:50.310Z,41.10
2018-07-23T09:18:26.782Z,40.50
2018-07-23T09:21:03.264Z,39.00
2018-07-23T09:23:39.591Z,38.40
2018-07-23T09:26:16.384Z,38.20
2018-07-23T09:28:52.637Z,38.50
2018-07-23T09:31:29.144Z,37.40
2018-07-23T09:34:05.474Z,38.50
2018-07-23T09:36:41.746Z,37.60
2018-07-23T09:39:18.100Z,39.20
2018-07-23T09:41:54.425Z,38.20
2018-07-23T09:44:30.744Z,37.40
2018-07-23T09:47:07.045Z,37.70
2018-07-23T09:49:44.217Z,37.10
2018-07-23T09:52:20.498Z,38.00
2018-07-23T09:54:56.838Z,38.60
2018-07-23T09:57:33.272Z,38.70
2018-07-23T10:00:09.552Z,36.40
2018-07-23T10:02:45.943Z,38.10
2018-07-23T10:05:22.132Z,37.40
2018-07-23T10:07:58.391Z,38.30
2018-07-23T10:10:34.747Z,37.40
2018-07-23T10:13:11.423Z,37.90
2018-07-23T10:15:47.808Z,39.20
2018-07-23T10:18:24.069Z,37.40
2018-07-23T10:21:00.432Z,38.00
2018-07-23T10:23:36.901Z,38.30
2018-07-23T10:26:13.279Z,39.10
2018-07-23T10:28:49.427Z,38.80
2018-07-23T10:31:25.977Z,39.30
2018-07-23T10:34:02.255Z,39.40
2018-07-23T10:36:38.683Z,38.30
2018-07-23T10:39:14.879Z,37.80
2018-07-23T10:41:51.122Z,37.90
2018-07-23T10:44:27.452Z,38.10
2018-07-23T10:47:03.774Z,38.60
2018-07-23T10:49:40.097Z,38.20
2018-07-23T10:52:16.513Z,38.40
2018-07-23T10:54:52.893Z,37.40
2018-07-23T10:57:29.264Z,37.60
2018-07-23T11:00:06.488Z,37.90
2018-07-23T11:02:42.797Z,37.90
2018-07-23T11:05:19.039Z,37.80
2018-07-23T11:07:55.430Z,37.70
2018-07-23T11:10:31.692Z,38.90
2018-07-23T11:13:07.963Z,39.40
2018-07-23T11:15:44.283Z,39.50
2018-07-23T11:18:20.660Z,40.20
2018-07-23T11:20:56.995Z,40.20
2018-07-23T11:23:33.339Z,40.00
2018-07-23T11:26:09.594Z,39.90
2018-07-23T11:28:45.991Z,39.20
2018-07-23T11:31:22.279Z,38.90
2018-07-23T11:33:58.708Z,39.40
2018-07-23T11:36:35.165Z,39.60
2018-07-23T11:39:12.331Z,39.80
2018-07-23T11:41:48.600Z,38.90
2018-07-23T11:44:24.854Z,38.70
2018-07-23T11:47:01.171Z,39.10
2018-07-23T11:49:37.361Z,38.90
2018-07-23T11:52:14.357Z,40.00
2018-07-23T11:54:49.879Z,39.30
2018-07-23T11:57:26.351Z,38.40
2018-07-23T12:00:02.687Z,39.20
2018-07-23T12:02:39.059Z,38.10
2018-07-23T12:05:15.223Z,38.60
2018-07-23T12:07:51.646Z,38.30
2018-07-23T12:10:28.080Z,37.30
2018-07-23T12:13:04.680Z,37.50
2018-07-23T12:15:40.951Z,36.80
2018-07-23T12:18:17.209Z,35.60
2018-07-23T12:20:53.329Z,35.80
2018-07-23T12:23:29.790Z,36.10
2018-07-23T12:26:06.161Z,37.00
2018-07-23T12:28:42.374Z,35.70
2018-07-23T12:31:18.755Z,36.70
2018-07-23T12:33:55.165Z,35.00
2018-07-23T12:36:31.472Z,35.90
2018-07-23T12:39:10.976Z,35.30
2018-07-23T12:41:47.224Z,35.10
2018-07-23T12:44:23.599Z,35.30
2018-07-23T12:47:00.045Z,35.40
2018-07-23T12:49:36.441Z,35.00
2018-07-23T12:52:12.614Z,35.00
2018-07-23T12:54:48.924Z,36.70
2018-07-23T12:57:25.206Z,35.90
2018-07-23T13:00:01.850Z,35.50
2018-07-23T13:02:37.984Z,34.80
2018-07-23T13:05:14.252Z,35.10
2018-07-23T13:07:50.619Z,34.00
2018-07-23T13:10:26.990Z,35.60
2018-07-23T13:13:03.412Z,35.90
2018-07-23T13:15:39.795Z,34.40
2018-07-23T13:18:16.157Z,35.00
2018-07-23T13:20:52.405Z,34.20
2018-07-23T13:23:28.935Z,34.50
2018-07-23T13:26:05.215Z,35.40
2018-07-23T13:28:41.528Z,34.60
2018-07-23T13:31:17.766Z,35.30
2018-07-23T13:33:54.216Z,34.70
2018-07-23T13:36:30.582Z,36.30
2018-07-23T13:39:10.672Z,35.70
2018-07-23T13:41:46.917Z,36.00
2018-07-23T13:44:23.178Z,35.80
2018-07-23T13:46:59.677Z,36.60
2018-07-23T13:49:35.819Z,35.60
2018-07-23T13:52:12.035Z,34.40
2018-07-23T13:54:48.267Z,34.50
2018-07-23T13:57:24.596Z,34.80
2018-07-23T14:00:00.879Z,34.20
2018-07-23T14:02:37.171Z,34.50
2018-07-23T14:05:13.517Z,34.70
2018-07-23T14:07:49.859Z,33.90
2018-07-23T14:10:27.132Z,33.90
2018-07-23T14:13:03.512Z,34.60
2018-07-23T14:15:39.954Z,34.10
2018-07-23T14:18:16.357Z,34.60
2018-07-23T14:20:52.511Z,33.50
2018-07-23T14:23:29.063Z,33.80
2018-07-23T14:26:05.253Z,33.20
2018-07-23T14:28:41.761Z,33.90
2018-07-23T14:31:18.267Z,33.00
2018-07-23T14:33:54.693Z,33.50
2018-07-23T14:36:31.036Z,32.90
2018-07-23T14:39:12.767Z,32.80
2018-07-23T14:41:48.993Z,32.70
2018-07-23T14:44:25.908Z,32.40
2018-07-23T14:47:02.285Z,32.50
2018-07-23T14:49:38.703Z,33.40
2018-07-23T14:52:15.043Z,33.50
2018-07-23T14:54:51.450Z,33.30
2018-07-23T14:57:27.925Z,33.00
2018-07-23T15:00:04.421Z,33.60
2018-07-23T15:02:40.752Z,34.20
2018-07-23T15:05:17.316Z,34.40
2018-07-23T15:07:53.555Z,33.50
2018-07-23T15:10:29.992Z,33.10
2018-07-23T15:13:06.507Z,32.00
2018-07-23T15:15:42.679Z,32.80
2018-07-23T15:18:19.117Z,32.50
2018-07-23T15:20:55.518Z,32.30
2018-07-23T15:23:32.023Z,32.10
2018-07-23T15:26:08.264Z,31.70
2018-07-23T15:28:44.624Z,32.20
2018-07-23T15:31:21.006Z,32.40
2018-07-23T15:33:57.408Z,31.80
2018-07-23T15:36:33.758Z,32.80
2018-07-23T15:39:11.128Z,32.60
2018-07-23T15:41:47.427Z,32.60
2018-07-23T15:44:24.005Z,32.70
2018-07-23T15:47:00.322Z,33.80
2018-07-23T15:49:36.867Z,33.30
2018-07-23T15:52:13.187Z,33.20
2018-07-23T15:54:49.365Z,32.20
2018-07-23T15:57:25.671Z,31.80
2018-07-23T16:00:01.923Z,32.10
2018-07-23T16:02:38.349Z,31.80
2018-07-23T16:05:14.777Z,32.20
2018-07-23T16:07:51.003Z,32.40
2018-07-23T16:10:27.654Z,32.30
2018-07-23T16:13:03.996Z,32.60
2018-07-23T16:15:40.362Z,33.00
2018-07-23T16:18:16.739Z,32.90
2018-07-23T16:20:53.038Z,32.60
2018-07-23T16:23:29.544Z,32.70
2018-07-23T16:26:06.117Z,33.00
2018-07-23T16:28:42.464Z,32.60
2018-07-23T16:31:18.867Z,33.00
2018-07-23T16:33:55.787Z,32.90
2018-07-23T16:36:32.158Z,33.20
2018-07-23T16:39:11.913Z,33.40
2018-07-23T16:41:48.187Z,33.10
2018-07-23T16:44:24.530Z,33.40
2018-07-23T16:47:00.973Z,33.40
2018-07-23T16:49:37.210Z,33.70
2018-07-23T16:52:13.730Z,33.50
2018-07-23T16:54:50.053Z,33.90
2018-07-23T16:57:26.488Z,33.90
2018-07-23T17:00:02.928Z,34.00
2018-07-23T17:02:39.231Z,34.20
2018-07-23T17:05:15.576Z,34.30
2018-07-23T17:07:51.738Z,34.20
2018-07-23T17:10:28.101Z,34.60
2018-07-23T17:13:04.255Z,35.00
2018-07-23T17:15:40.518Z,35.00
2018-07-23T17:18:16.876Z,35.40
2018-07-23T17:20:53.211Z,35.70
2018-07-23T17:23:29.824Z,35.90
2018-07-23T17:26:06.224Z,36.70
2018-07-23T17:28:42.467Z,37.10
2018-07-23T17:31:18.912Z,37.20
2018-07-23T17:33:55.470Z,37.10
2018-07-23T17:36:31.856Z,37.60
2018-07-23T17:39:11.631Z,38.00
2018-07-23T17:41:47.893Z,37.80
2018-07-23T17:44:24.382Z,38.10
2018-07-23T17:47:00.815Z,38.30
2018-07-23T17:49:37.190Z,38.60
2018-07-23T17:52:13.509Z,38.70
2018-07-23T17:54:49.763Z,37.90
2018-07-23T17:57:26.193Z,37.80
2018-07-23T18:00:02.593Z,38.30
2018-07-23T18:02:39.214Z,38.00
2018-07-23T18:05:16.312Z,38.20
2018-07-23T18:07:52.542Z,37.90
2018-07-23T18:10:28.899Z,38.00
2018-07-23T18:13:05.423Z,38.20
2018-07-23T18:15:41.813Z,38.50
2018-07-23T18:18:18.215Z,38.30
2018-07-23T18:20:54.648Z,38.70
2018-07-23T18:23:31.251Z,38.80
2018-07-23T18:26:07.450Z,39.20
2018-07-23T18:28:43.696Z,39.50
2018-07-23T18:31:20.043Z,39.50
2018-07-23T18:33:56.397Z,39.90
2018-07-23T18:36:32.863Z,39.70
2018-07-23T18:39:11.499Z,39.50
2018-07-23T18:41:49.812Z,39.60
2018-07-23T18:44:26.380Z,39.90
2018-07-23T18:47:02.827Z,40.10
2018-07-23T18:49:52.031Z,40.70
2018-07-23T18:52:29.283Z,40.40
2018-07-23T18:55:05.658Z,40.60
2018-07-23T18:57:41.892Z,41.10
2018-07-23T19:00:18.380Z,41.00
2018-07-23T19:02:54.668Z,41.40
2018-07-23T19:05:30.986Z,41.40
2018-07-23T19:08:07.253Z,41.70
2018-07-23T19:10:43.554Z,41.80
2018-07-23T19:13:19.892Z,42.00
2018-07-23T19:15:56.661Z,42.10
2018-07-23T19:18:33.053Z,42.30
2018-07-23T19:21:09.372Z,42.80
2018-07-23T19:23:45.570Z,43.20
2018-07-23T19:26:22.449Z,43.10
2018-07-23T19:28:58.961Z,43.80
2018-07-23T19:31:35.377Z,44.60
2018-07-23T19:34:12.198Z,45.90
2018-07-23T19:36:48.452Z,46.00
2018-07-23T19:39:24.801Z,46.00
2018-07-23T19:42:01.154Z,47.20
2018-07-23T19:44:37.472Z,47.70
2018-07-23T19:47:13.891Z,47.80
2018-07-23T19:49:50.207Z,48.40
2018-07-23T19:52:26.638Z,48.30
2018-07-23T19:55:02.904Z,48.60
2018-07-23T19:57:39.517Z,48.90
2018-07-23T20:00:15.637Z,48.80
2018-07-23T20:02:51.883Z,48.80
2018-07-23T20:05:28.374Z,49.20
2018-07-23T20:08:04.729Z,49.30
2018-07-23T20:10:40.908Z,49.90
2018-07-23T20:13:17.073Z,50.10
2018-07-23T20:15:53.643Z,49.30
2018-07-23T20:18:29.915Z,50.20
2018-07-23T20:21:06.064Z,50.50
2018-07-23T20:23:42.402Z,50.70
2018-07-23T20:26:18.667Z,50.50
2018-07-23T20:28:55.082Z,51.00
2018-07-23T20:31:31.413Z,51.30
2018-07-23T20:34:07.830Z,53.40
2018-07-23T20:36:44.786Z,52.70
2018-07-23T20:39:20.985Z,52.40
2018-07-23T20:41:57.664Z,52.60
2018-07-23T20:44:33.978Z,52.90
2018-07-23T20:47:10.316Z,52.90
2018-07-23T20:49:46.684Z,53.00
2018-07-23T20:52:23.029Z,53.00
2018-07-23T20:54:59.440Z,53.90
2018-07-23T20:57:35.729Z,53.50
2018-07-23T21:00:11.951Z,53.50
2018-07-23T21:02:48.152Z,54.30
2018-07-23T21:05:24.541Z,54.10
2018-07-23T21:08:00.905Z,53.70
2018-07-23T21:10:37.107Z,53.50
2018-07-23T21:13:13.426Z,53.70
2018-07-23T21:15:49.719Z,53.80
2018-07-23T21:18:26.175Z,54.00
2018-07-23T21:21:02.379Z,54.00
2018-07-23T21:23:38.761Z,54.00
2018-07-23T21:26:15.038Z,54.10
2018-07-23T21:28:51.437Z,54.30
2018-07-23T21:31:27.724Z,54.60
2018-07-23T21:34:04.021Z,56.10
2018-07-23T21:36:40.422Z,55.50
2018-07-23T21:39:16.804Z,55.50
2018-07-23T21:41:53.362Z,55.50
2018-07-23T21:44:29.568Z,56.40
2018-07-23T21:47:05.923Z,55.60
2018-07-23T21:49:42.337Z,55.80
2018-07-23T21:52:18.696Z,56.00
2018-07-23T21:54:55.320Z,56.20
2018-07-23T21:57:32.816Z,56.10
2018-07-23T22:00:16.500Z,56.70
2018-07-23T22:02:52.656Z,55.40
2018-07-23T22:05:29.084Z,56.70
2018-07-23T22:08:05.519Z,56.60
2018-07-23T22:10:42.003Z,56.60
2018-07-23T22:13:18.407Z,57.60
2018-07-23T22:15:54.701Z,57.60
2018-07-23T22:18:30.940Z,57.30
2018-07-23T22:21:07.295Z,57.20
2018-07-23T22:23:43.963Z,57.80
2018-07-23T22:26:20.149Z,58.00
2018-07-23T22:28:56.415Z,58.90
2018-07-23T22:31:32.929Z,58.70
2018-07-23T22:34:09.159Z,58.80
2018-07-23T22:36:45.518Z,58.50
2018-07-23T22:39:23.261Z,60.60
2018-07-23T22:41:59.581Z,61.00
2018-07-23T22:44:35.824Z,58.90
2018-07-23T22:47:12.786Z,59.60
2018-07-23T22:49:49.207Z,59.70
2018-07-23T22:52:25.627Z,59.80
2018-07-23T22:55:01.985Z,59.70
2018-07-23T22:57:38.212Z,59.60
2018-07-23T23:00:14.685Z,58.90
2018-07-23T23:02:51.989Z,58.60
2018-07-23T23:05:28.386Z,59.30
2018-07-23T23:08:04.612Z,60.00
2018-07-23T23:10:40.955Z,60.70
2018-07-23T23:13:17.377Z,59.90
2018-07-23T23:15:53.691Z,60.00
2018-07-23T23:18:30.113Z,60.10
2018-07-23T23:21:06.546Z,60.10
2018-07-23T23:23:42.832Z,59.70
2018-07-23T23:26:19.011Z,61.40
2018-07-23T23:28:55.500Z,61.10
2018-07-23T23:31:31.923Z,61.20
2018-07-23T23:34:08.302Z,60.60
2018-07-23T23:36:44.657Z,61.40
2018-07-23T23:39:20.937Z,61.50
2018-07-23T23:41:57.383Z,61.30
2018-07-23T23:44:33.722Z,61.70
2018-07-23T23:47:09.983Z,62.10
2018-07-23T23:49:47.110Z,61.90
2018-07-23T23:52:24.339Z,62.30
2018-07-23T23:55:00.650Z,63.20
2018-07-23T23:57:36.799Z,62.90
